Time;durP1;ratioP1;P1;durP2;ratioP2;P2;SDS_P1;SDS_P2;PMS_P1;PMS_P2;Temp;Humidity;BMP_temperature;BMP_pressure;BME280_temperature;BME280_humidity;BME280_pressure;Samples;Min_cycle;Max_cycle;Signal;HPM_P1;HPM_P2
2023/05/30 00:01:13;;;;;;;10.10;6.25;;;13.80;76.70;;;;;;5113941;28;20438;-80
2023/05/30 00:03:39;;;;;;;9.23;5.72;;;13.80;76.60;;;;;;5113815;28;20015;-79
2023/05/30 00:06:05;;;;;;;10.30;6.13;;;13.90;76.40;;;;;;5095647;28;20039;-79
2023/05/30 00:08:31;;;;;;;9.30;5.13;;;13.90;76.20;;;;;;5095457;28;20396;-79
2023/05/30 00:10:57;;;;;;;11.30;6.10;;;13.90;76.50;;;;;;5095274;28;20055;-79
2023/05/30 00:13:22;;;;;;;15.82;6.10;;;13.90;76.50;;;;;;5113797;28;20027;-79
2023/05/30 00:15:49;;;;;;;11.63;6.57;;;13.90;76.60;;;;;;5095461;28;20534;-80
2023/05/30 00:18:15;;;;;;;9.00;5.38;;;13.90;76.50;;;;;;5113746;28;20073;-80
2023/05/30 00:20:44;;;;;;;11.25;6.05;;;14.00;76.70;;;;;;5095423;28;20019;-80
2023/05/30 00:23:10;;;;;;;13.07;6.63;;;13.90;76.90;;;;;;5113622;28;20072;-79
2023/05/30 00:25:37;;;;;;;9.10;5.55;;;13.90;77.10;;;;;;5095352;28;20102;-79
2023/05/30 00:28:06;;;;;;;12.75;6.70;;;13.90;77.20;;;;;;5095241;28;20032;-79
2023/05/30 00:30:33;;;;;;;10.65;6.00;;;13.90;77.90;;;;;;5113696;28;20020;-80
2023/05/30 00:32:59;;;;;;;9.05;6.35;;;13.90;77.70;;;;;;5113567;28;20024;-80
2023/05/30 00:35:25;;;;;;;9.75;6.20;;;13.90;77.80;;;;;;5113587;28;20023;-81
2023/05/30 00:37:50;;;;;;;7.43;5.90;;;13.90;77.90;;;;;;5099315;28;20019;-79
2023/05/30 00:40:16;;;;;;;9.90;5.57;;;13.90;78.20;;;;;;5117695;28;20483;-80
2023/05/30 00:42:42;;;;;;;9.48;6.93;;;13.90;78.40;;;;;;5117425;28;20632;-79
2023/05/30 00:45:08;;;;;;;10.75;7.15;;;13.90;78.40;;;;;;5117539;28;20034;-79
2023/05/30 00:47:35;;;;;;;11.05;7.13;;;13.90;78.80;;;;;;5099081;28;20131;-80
2023/05/30 00:50:01;;;;;;;13.00;6.43;;;13.90;78.80;;;;;;5117600;28;20024;-79
2023/05/30 00:52:27;;;;;;;12.48;6.57;;;13.90;78.70;;;;;;5117379;28;20028;-79
2023/05/30 00:54:53;;;;;;;13.10;6.05;;;14.00;78.60;;;;;;5099085;28;20012;-79
2023/05/30 00:57:19;;;;;;;10.57;5.90;;;14.00;78.50;;;;;;5117376;28;20054;-79
2023/05/30 00:59:45;;;;;;;12.57;5.95;;;14.00;78.50;;;;;;5099004;28;20020;-78
2023/05/30 01:02:11;;;;;;;14.35;6.80;;;14.00;78.60;;;;;;5098937;28;20026;-79
2023/05/30 01:04:37;;;;;;;9.27;6.20;;;14.00;78.50;;;;;;5098080;28;20019;-78
2023/05/30 01:07:04;;;;;;;13.68;5.47;;;14.10;78.20;;;;;;5098488;28;20507;-79
2023/05/30 01:09:30;;;;;;;12.23;5.78;;;14.10;78.00;;;;;;5098386;28;20051;-79
2023/05/30 01:12:23;;;;;;;12.02;5.82;;;14.00;78.30;;;;;;5098392;28;20026;-78
2023/05/30 01:14:55;;;;;;;10.65;5.55;;;14.10;78.20;;;;;;5116879;28;20023;-79
2023/05/30 01:17:30;;;;;;;11.35;6.03;;;14.10;78.20;;;;;;5116766;28;20022;-79
2023/05/30 01:20:12;;;;;;;11.55;6.53;;;14.10;78.30;;;;;;5096360;28;20021;-79
2023/05/30 01:23:20;;;;;;;9.10;5.97;;;14.10;78.60;;;;;;5096480;28;20020;-79
2023/05/30 01:26:06;;;;;;;11.23;5.60;;;14.10;78.30;;;;;;5088572;28;20028;-79
2023/05/30 01:28:37;;;;;;;12.52;6.57;;;14.00;78.10;;;;;;5094118;28;20044;-79
2023/05/30 01:31:04;;;;;;;10.03;6.20;;;14.00;78.20;;;;;;5077250;28;20028;-78
2023/05/30 01:33:31;;;;;;;8.85;5.70;;;14.10;78.50;;;;;;5078096;28;20024;-78
2023/05/30 01:35:57;;;;;;;12.30;5.90;;;14.10;78.70;;;;;;5078098;28;20097;-78
2023/05/30 01:38:22;;;;;;;13.05;6.57;;;14.00;79.00;;;;;;5077051;28;20146;-78
2023/05/30 01:40:56;;;;;;;16.52;7.18;;;14.00;79.00;;;;;;5094201;28;20481;-78
2023/05/30 01:43:22;;;;;;;11.13;5.55;;;14.00;79.10;;;;;;5093193;28;20024;-79
2023/05/30 01:46:25;;;;;;;12.02;5.43;;;14.00;79.20;;;;;;5092410;28;20495;-78
2023/05/30 01:49:09;;;;;;;11.10;6.93;;;14.00;79.00;;;;;;5092241;28;20035;-78
2023/05/30 01:51:47;;;;;;;11.60;5.78;;;14.00;78.90;;;;;;5092343;28;20022;-78
2023/05/30 01:54:17;;;;;;;13.07;6.45;;;14.00;79.70;;;;;;5075438;28;20028;-78
2023/05/30 01:56:46;;;;;;;9.05;6.53;;;14.00;79.70;;;;;;5093695;28;20040;-78
2023/05/30 01:59:15;;;;;;;11.88;5.95;;;13.90;79.20;;;;;;5095459;28;20377;-79
2023/05/30 02:01:42;;;;;;;8.10;5.88;;;13.90;79.90;;;;;;5077486;28;20028;-79
2023/05/30 02:04:08;;;;;;;11.18;6.55;;;13.80;81.70;;;;;;5077640;28;20012;-79
2023/05/30 02:06:35;;;;;;;10.38;6.97;;;13.70;83.00;;;;;;5077410;28;20047;-78
2023/05/30 02:09:00;;;;;;;15.10;7.75;;;13.60;83.60;;;;;;5070165;28;20049;-79
2023/05/30 02:11:26;;;;;;;14.35;7.20;;;13.60;84.00;;;;;;5055366;28;20570;-79
2023/05/30 02:13:52;;;;;;;11.63;8.05;;;13.50;84.60;;;;;;5037426;28;20031;-79
2023/05/30 02:16:18;;;;;;;16.00;7.25;;;13.40;86.10;;;;;;5037269;28;20040;-78
2023/05/30 02:18:44;;;;;;;10.45;6.35;;;13.40;87.50;;;;;;5037301;28;20013;-79
2023/05/30 02:21:10;;;;;;;12.73;6.70;;;13.40;87.20;;;;;;5055268;28;20471;-78
2023/05/30 02:23:36;;;;;;;15.57;7.47;;;13.40;87.50;;;;;;5036951;28;20021;-78
2023/05/30 02:26:02;;;;;;;14.35;7.35;;;13.30;88.10;;;;;;5037298;28;20053;-78
2023/05/30 02:28:29;;;;;;;14.45;8.00;;;13.30;87.80;;;;;;5037146;28;20063;-78
2023/05/30 02:30:55;;;;;;;16.67;7.90;;;13.40;87.10;;;;;;5054956;28;20449;-79
2023/05/30 02:33:20;;;;;;;19.77;8.88;;;13.30;86.80;;;;;;5054907;28;20052;-79
2023/05/30 02:35:46;;;;;;;17.33;8.60;;;13.30;87.60;;;;;;5037006;28;20028;-79
2023/05/30 02:38:11;;;;;;;15.25;7.60;;;13.20;90.20;;;;;;5054567;28;20021;-79
2023/05/30 02:40:37;;;;;;;15.00;7.55;;;13.20;90.90;;;;;;5036792;28;20076;-79
2023/05/30 02:43:03;;;;;;;18.65;7.97;;;13.20;90.70;;;;;;5054708;28;20051;-80
2023/05/30 02:45:28;;;;;;;12.70;6.30;;;13.10;91.70;;;;;;5054623;28;20025;-79
2023/05/30 02:47:54;;;;;;;8.60;6.60;;;13.10;90.90;;;;;;5036517;28;20033;-79
2023/05/30 02:50:20;;;;;;;9.98;6.10;;;13.10;90.70;;;;;;5054602;28;20076;-79
2023/05/30 02:52:45;;;;;;;12.32;6.85;;;13.10;90.80;;;;;;5054478;28;20144;-78
2023/05/30 02:55:12;;;;;;;10.38;5.80;;;13.10;91.90;;;;;;5036639;28;20474;-79
2023/05/30 02:57:38;;;;;;;8.30;5.65;;;13.10;90.40;;;;;;5036445;28;20071;-79
2023/05/30 03:00:05;;;;;;;15.88;6.60;;;13.10;89.60;;;;;;5053631;28;20025;-79
2023/05/30 03:02:31;;;;;;;13.88;7.22;;;13.10;88.70;;;;;;5036390;28;20124;-79
2023/05/30 03:04:57;;;;;;;16.80;8.20;;;13.20;90.40;;;;;;5036313;28;20515;-79
2023/05/30 03:07:26;;;;;;;13.20;7.82;;;13.20;91.10;;;;;;5054345;28;20047;-80
2023/05/30 03:09:52;;;;;;;13.43;7.15;;;13.20;88.80;;;;;;5067043;28;20055;-79
2023/05/30 03:12:19;;;;;;;11.20;7.30;;;13.20;90.80;;;;;;5074099;28;20024;-79
2023/05/30 03:14:45;;;;;;;10.90;6.32;;;13.20;91.00;;;;;;5056142;28;20028;-78
2023/05/30 03:17:10;;;;;;;10.77;6.35;;;13.20;89.20;;;;;;5056141;28;20033;-78
2023/05/30 03:19:36;;;;;;;12.70;6.45;;;13.30;86.70;;;;;;5083524;28;20028;-78
2023/05/30 03:22:01;;;;;;;10.63;5.57;;;13.40;85.50;;;;;;5075996;28;20047;-79
2023/05/30 03:24:29;;;;;;;12.13;7.30;;;13.50;83.60;;;;;;5076024;28;20481;-79
2023/05/30 03:26:54;;;;;;;17.42;11.88;;;13.60;83.60;;;;;;5075924;28;20082;-78
2023/05/30 03:29:21;;;;;;;12.30;7.45;;;13.60;83.20;;;;;;5094060;28;20032;-80
2023/05/30 03:31:46;;;;;;;10.93;5.72;;;13.70;82.20;;;;;;5093938;28;20016;-80
2023/05/30 03:34:12;;;;;;;13.95;8.77;;;13.70;82.60;;;;;;5093937;28;20099;-80
2023/05/30 03:36:40;;;;;;;14.40;7.72;;;13.70;83.20;;;;;;5093868;28;20026;-80
2023/05/30 03:39:06;;;;;;;9.10;6.57;;;13.70;83.90;;;;;;5076651;28;20110;-79
2023/05/30 03:41:31;;;;;;;9.02;6.15;;;13.70;86.80;;;;;;5094117;28;20055;-79
2023/05/30 03:43:57;;;;;;;10.32;6.50;;;13.70;85.10;;;;;;5093745;28;20056;-79
2023/05/30 03:46:23;;;;;;;8.90;5.78;;;13.70;83.80;;;;;;5075582;28;20481;-79
2023/05/30 03:48:48;;;;;;;13.07;6.38;;;13.80;86.80;;;;;;5093809;28;20119;-79
2023/05/30 03:51:15;;;;;;;12.20;6.65;;;13.70;87.00;;;;;;5093718;28;20432;-79
2023/05/30 03:53:43;;;;;;;12.10;6.60;;;13.70;89.30;;;;;;5093795;28;20077;-79
2023/05/30 03:56:09;;;;;;;13.02;7.05;;;13.70;87.80;;;;;;5075951;28;20024;-79
2023/05/30 03:58:35;;;;;;;18.95;7.97;;;13.70;86.60;;;;;;5075515;28;20024;-80
2023/05/30 04:01:01;;;;;;;16.27;6.88;;;13.70;84.50;;;;;;5075480;28;20081;-79
2023/05/30 04:03:28;;;;;;;13.52;6.63;;;13.70;85.10;;;;;;5075354;28;20031;-79
2023/05/30 04:05:55;;;;;;;12.13;6.80;;;13.70;85.20;;;;;;5093681;28;20028;-79
2023/05/30 04:08:22;;;;;;;15.38;7.22;;;13.70;84.90;;;;;;5075994;28;20453;-80
2023/05/30 04:10:48;;;;;;;11.57;6.40;;;13.80;85.50;;;;;;5093610;28;20504;-80
2023/05/30 04:13:13;;;;;;;16.27;7.45;;;13.70;84.60;;;;;;5093278;28;20028;-80
2023/05/30 04:15:39;;;;;;;12.50;6.95;;;13.80;85.70;;;;;;5075373;28;20118;-80
2023/05/30 04:18:05;;;;;;;12.55;7.13;;;13.80;86.60;;;;;;5093378;28;20025;-80
2023/05/30 04:20:30;;;;;;;15.70;6.53;;;13.80;86.10;;;;;;5075456;28;20024;-79
2023/05/30 04:22:56;;;;;;;29.70;7.60;;;13.90;85.80;;;;;;5075210;28;20043;-80
2023/05/30 04:25:22;;;;;;;13.77;6.97;;;13.90;86.90;;;;;;5075300;28;20060;-80
2023/05/30 04:27:48;;;;;;;12.50;7.30;;;14.00;87.10;;;;;;5075123;28;20036;-79
2023/05/30 04:30:14;;;;;;;8.85;5.43;;;14.00;86.20;;;;;;5093282;28;20024;-79
2023/05/30 04:32:39;;;;;;;12.43;5.68;;;14.00;85.50;;;;;;5093212;28;20103;-79
2023/05/30 04:35:07;;;;;;;10.85;5.78;;;14.10;87.00;;;;;;5093051;28;20381;-78
2023/05/30 04:37:39;;;;;;;10.15;5.57;;;14.10;87.20;;;;;;5076141;28;20051;-79
2023/05/30 04:40:08;;;;;;;;;;;14.10;85.40;;;;;;5075499;28;20031;-79
2023/05/30 04:42:34;;;;;;;6.80;4.88;;;14.10;83.70;;;;;;5092443;28;19904;-78
2023/05/30 04:45:00;;;;;;;9.45;5.65;;;14.20;83.00;;;;;;5093273;28;20082;-79
2023/05/30 04:47:28;;;;;;;11.10;4.85;;;14.20;83.70;;;;;;5074768;28;20469;-79
2023/05/30 04:49:54;;;;;;;8.25;5.22;;;14.30;83.20;;;;;;5074918;28;20047;-78
2023/05/30 04:52:21;;;;;;;8.80;5.30;;;14.40;84.30;;;;;;5074905;28;20020;-79
2023/05/30 04:54:46;;;;;;;10.80;5.28;;;14.50;86.50;;;;;;5074769;28;20016;-79
2023/05/30 04:57:12;;;;;;;13.57;11.20;;;14.60;82.20;;;;;;5074817;28;20024;-79
2023/05/30 04:59:39;;;;;;;12.85;9.75;;;14.60;85.40;;;;;;5074823;28;20016;-79
2023/05/30 05:02:05;;;;;;;11.75;7.65;;;14.70;85.70;;;;;;5092830;28;20012;-79
2023/05/30 05:04:31;;;;;;;14.25;8.07;;;14.80;87.40;;;;;;5092844;28;20400;-80
2023/05/30 05:06:57;;;;;;;10.18;6.57;;;14.90;87.50;;;;;;5092661;28;20107;-79
2023/05/30 05:09:24;;;;;;;10.50;6.43;;;14.90;88.00;;;;;;5074492;28;20106;-78
2023/05/30 05:11:50;;;;;;;16.17;6.93;;;15.00;84.70;;;;;;5074704;28;20024;-79
2023/05/30 05:14:16;;;;;;;11.13;6.72;;;15.00;80.20;;;;;;5062272;28;20421;-78
2023/05/30 05:16:41;;;;;;;11.20;6.25;;;15.10;78.60;;;;;;5072668;28;20082;-80
2023/05/30 05:19:07;;;;;;;8.25;5.38;;;15.10;79.10;;;;;;5075246;28;20024;-80
2023/05/30 05:21:33;;;;;;;10.40;5.20;;;15.10;77.50;;;;;;5055566;28;20021;-79
2023/05/30 05:23:58;;;;;;;10.73;5.18;;;15.00;78.50;;;;;;5076165;28;20059;-80
2023/05/30 05:26:24;;;;;;;11.68;4.75;;;15.10;78.50;;;;;;5076176;28;20028;-80
2023/05/30 05:28:51;;;;;;;9.23;5.43;;;15.10;78.70;;;;;;5058291;28;20078;-80
2023/05/30 05:31:17;;;;;;;8.80;5.20;;;15.20;78.60;;;;;;5076121;28;20478;-80
2023/05/30 05:33:43;;;;;;;9.05;6.13;;;15.10;78.80;;;;;;5075494;28;20355;-81
2023/05/30 05:36:08;;;;;;;9.52;4.78;;;15.10;79.40;;;;;;5076078;28;20513;-80
2023/05/30 05:38:34;;;;;;;7.45;4.32;;;15.10;79.10;;;;;;5058088;28;20020;-80
2023/05/30 05:41:00;;;;;;;11.98;5.60;;;15.10;78.90;;;;;;5073258;28;20467;-80
2023/05/30 05:43:25;;;;;;;7.70;5.45;;;15.20;78.80;;;;;;5074997;28;20020;-79
2023/05/30 05:45:51;;;;;;;9.25;5.10;;;15.10;79.10;;;;;;5075396;28;20036;-80
2023/05/30 05:48:17;;;;;;;12.07;5.55;;;15.00;79.50;;;;;;5074556;28;20032;-80
2023/05/30 05:50:43;;;;;;;11.43;5.88;;;14.90;80.20;;;;;;5074168;28;20047;-80
2023/05/30 05:53:09;;;;;;;9.40;6.00;;;14.80;81.00;;;;;;5074241;28;20050;-79
2023/05/30 05:55:35;;;;;;;10.43;5.15;;;14.90;81.30;;;;;;5074919;28;20773;-80
2023/05/30 05:58:00;;;;;;;10.38;6.05;;;14.90;81.80;;;;;;5074956;28;20020;-79
2023/05/30 06:00:26;;;;;;;16.40;5.53;;;14.90;81.70;;;;;;5093308;28;20035;-79
2023/05/30 06:02:52;;;;;;;17.50;6.60;;;15.00;81.70;;;;;;5092375;28;20032;-79
2023/05/30 06:05:18;;;;;;;8.48;5.32;;;14.90;82.20;;;;;;5092656;28;20031;-79
2023/05/30 06:07:43;;;;;;;9.65;5.32;;;15.00;82.50;;;;;;5092203;28;20137;-79
2023/05/30 06:10:09;;;;;;;10.73;5.72;;;15.10;82.40;;;;;;5094282;28;20064;-79
2023/05/30 06:12:35;;;;;;;11.68;6.03;;;15.10;80.80;;;;;;5076309;28;20044;-80
2023/05/30 06:15:01;;;;;;;10.30;6.00;;;15.30;79.80;;;;;;5076172;28;20416;-79
2023/05/30 06:17:27;;;;;;;9.50;5.50;;;15.40;80.10;;;;;;5093031;28;20038;-79
2023/05/30 06:19:53;;;;;;;10.75;6.68;;;15.40;80.20;;;;;;5093718;28;20020;-80
2023/05/30 06:22:18;;;;;;;14.13;6.00;;;15.60;79.60;;;;;;5092087;28;20043;-80
2023/05/30 06:24:44;;;;;;;15.00;7.03;;;15.70;79.70;;;;;;5060273;28;20016;-80
2023/05/30 06:27:10;;;;;;;11.60;6.10;;;15.70;79.60;;;;;;5084434;28;20036;-81
2023/05/30 06:29:35;;;;;;;11.52;6.25;;;15.90;78.70;;;;;;5065674;28;20040;-81
2023/05/30 06:32:01;;;;;;;10.55;6.00;;;16.00;78.30;;;;;;5068032;28;20040;-80
2023/05/30 06:34:27;;;;;;;15.43;6.70;;;16.20;77.90;;;;;;5093430;28;20028;-80
2023/05/30 06:36:53;;;;;;;12.43;6.03;;;16.30;77.30;;;;;;5091850;28;20420;-79
2023/05/30 06:39:18;;;;;;;10.63;6.15;;;16.20;77.00;;;;;;5093080;28;20374;-80
2023/05/30 06:41:45;;;;;;;8.25;6.20;;;16.10;77.50;;;;;;5075915;28;20457;-80
2023/05/30 06:44:11;;;;;;;13.50;6.78;;;16.40;78.40;;;;;;5095030;28;20031;-81
2023/05/30 06:46:37;;;;;;;8.88;5.72;;;16.60;77.00;;;;;;5077067;28;20020;-81
2023/05/30 06:49:03;;;;;;;9.60;6.00;;;16.50;75.60;;;;;;5076722;28;20028;-81
2023/05/30 06:51:29;;;;;;;8.40;5.68;;;16.30;76.10;;;;;;5094909;28;20024;-81
2023/05/30 06:53:55;;;;;;;12.95;5.88;;;16.20;76.40;;;;;;5076628;28;20016;-80
2023/05/30 06:56:20;;;;;;;11.20;5.80;;;16.10;76.00;;;;;;5076689;28;20016;-81
2023/05/30 06:58:46;;;;;;;12.27;5.88;;;16.30;76.70;;;;;;5076652;28;20028;-81
2023/05/30 07:01:12;;;;;;;13.18;5.85;;;16.40;75.10;;;;;;5076642;28;20028;-80
2023/05/30 07:03:37;;;;;;;10.30;5.82;;;16.50;75.40;;;;;;5095820;28;20020;-80
2023/05/30 07:06:03;;;;;;;12.00;5.63;;;16.60;76.20;;;;;;5094616;28;20477;-81
2023/05/30 07:08:29;;;;;;;29.55;7.40;;;17.00;73.60;;;;;;5076248;28;20032;-80
2023/05/30 07:10:55;;;;;;;10.55;6.03;;;17.40;72.70;;;;;;5094498;28;20056;-81
2023/05/30 07:13:20;;;;;;;7.93;4.75;;;17.60;70.30;;;;;;5076315;28;20016;-81
2023/05/30 07:15:47;;;;;;;14.73;5.10;;;17.80;68.50;;;;;;5076224;28;20070;-81
2023/05/30 07:18:13;;;;;;;24.92;5.97;;;18.10;68.70;;;;;;5076241;28;20030;-81
2023/05/30 07:20:38;;;;;;;7.15;4.43;;;18.30;67.20;;;;;;5076235;28;20024;-81
2023/05/30 07:23:04;;;;;;;6.88;4.53;;;18.40;66.90;;;;;;5076200;28;20119;-81
2023/05/30 07:25:30;;;;;;;10.93;5.47;;;18.20;65.90;;;;;;5077441;28;20015;-81
2023/05/30 07:27:56;;;;;;;11.15;5.10;;;18.20;66.00;;;;;;5075982;28;20062;-81
2023/05/30 07:30:21;;;;;;;12.80;5.05;;;18.20;66.40;;;;;;5094275;28;20395;-81
2023/05/30 07:32:47;;;;;;;7.63;5.15;;;18.40;66.50;;;;;;5094098;28;20029;-81
2023/05/30 07:35:13;;;;;;;13.98;5.22;;;18.40;67.00;;;;;;5094303;28;20031;-80
2023/05/30 07:37:38;;;;;;;9.40;5.07;;;18.60;66.00;;;;;;5075840;28;20097;-80
2023/05/30 07:40:05;;;;;;;8.10;5.35;;;18.30;65.00;;;;;;5075915;28;20098;-80
2023/05/30 07:42:36;;;;;;;11.30;4.97;;;18.10;66.60;;;;;;5075626;28;20020;-80
2023/05/30 07:45:02;;;;;;;9.30;5.25;;;18.30;66.80;;;;;;5075566;28;20028;-81
2023/05/30 07:47:28;;;;;;;6.95;4.88;;;18.50;66.90;;;;;;5093982;28;20020;-80
2023/05/30 07:49:54;;;;;;;8.80;5.35;;;18.50;66.30;;;;;;5093893;28;20023;-80
2023/05/30 07:52:20;;;;;;;9.75;5.18;;;18.80;66.50;;;;;;5093842;28;20027;-80
2023/05/30 07:54:45;;;;;;;10.15;5.00;;;18.70;63.00;;;;;;5075706;28;20477;-80
2023/05/30 07:57:13;;;;;;;7.95;4.75;;;18.70;63.80;;;;;;5093697;28;20440;-80
2023/05/30 07:59:41;;;;;;;7.93;5.13;;;18.80;62.70;;;;;;5075494;28;20013;-81
2023/05/30 08:02:07;;;;;;;11.43;5.00;;;18.90;63.20;;;;;;5093749;28;20012;-81
2023/05/30 08:04:32;;;;;;;6.75;4.43;;;19.30;63.30;;;;;;5075528;28;20500;-81
2023/05/30 08:06:58;;;;;;;9.40;5.05;;;19.20;60.80;;;;;;5093712;28;20469;-81
2023/05/30 08:09:23;;;;;;;7.82;3.90;;;19.40;60.80;;;;;;5095369;28;20036;-81
2023/05/30 08:11:49;;;;;;;9.55;3.88;;;19.30;58.80;;;;;;5075408;28;20024;-81
2023/05/30 08:14:15;;;;;;;7.57;4.25;;;19.40;59.20;;;;;;5093550;28;20085;-81
2023/05/30 08:16:40;;;;;;;5.95;3.85;;;19.40;58.30;;;;;;5093470;28;20511;-81
2023/05/30 08:19:06;;;;;;;8.90;4.07;;;19.40;57.70;;;;;;5075451;28;20394;-81
2023/05/30 08:21:32;;;;;;;9.77;5.18;;;19.60;56.70;;;;;;5075289;28;20024;-81
2023/05/30 08:23:58;;;;;;;8.57;4.25;;;19.70;56.80;;;;;;5075447;28;20032;-81
2023/05/30 08:26:30;;;;;;;13.23;5.43;;;19.40;56.50;;;;;;5075227;28;20012;-81
2023/05/30 08:28:56;;;;;;;8.93;3.80;;;19.40;55.20;;;;;;5094293;28;20036;-81
2023/05/30 08:31:21;;;;;;;9.20;4.22;;;19.20;57.60;;;;;;5075250;28;20123;-81
2023/05/30 08:33:47;;;;;;;5.85;3.85;;;19.10;58.10;;;;;;5093394;28;20028;-81
2023/05/30 08:36:13;;;;;;;8.52;3.42;;;19.30;57.80;;;;;;5093337;28;20022;-81
2023/05/30 08:38:38;;;;;;;6.97;3.45;;;19.30;56.00;;;;;;5093370;28;20028;-81
2023/05/30 08:41:04;;;;;;;7.40;3.75;;;19.50;55.90;;;;;;5075159;28;20468;-81
2023/05/30 08:43:30;;;;;;;8.77;4.53;;;19.70;55.60;;;;;;5075159;28;20055;-81
2023/05/30 08:45:57;;;;;;;8.85;4.00;;;20.10;56.20;;;;;;5075169;28;20024;-81
2023/05/30 08:48:25;;;;;;;8.07;3.50;;;20.30;52.50;;;;;;5076667;28;20120;-81
2023/05/30 08:50:52;;;;;;;7.18;3.63;;;20.40;51.00;;;;;;5093299;28;20156;-81
2023/05/30 08:53:25;;;;;;;5.53;3.00;;;20.50;50.30;;;;;;5074966;28;20020;-82
2023/05/30 08:56:07;;;;;;;5.80;3.33;;;20.40;49.20;;;;;;5092972;28;20404;-81
2023/05/30 08:58:50;;;;;;;5.65;3.20;;;20.40;51.20;;;;;;5078326;28;20119;-81
2023/05/30 09:01:16;;;;;;;10.45;3.35;;;20.70;51.30;;;;;;5078977;28;20032;-81
2023/05/30 09:03:44;;;;;;;5.68;3.38;;;20.70;51.30;;;;;;5096974;28;20111;-81
2023/05/30 09:06:13;;;;;;;4.93;3.15;;;20.80;50.40;;;;;;5097080;28;20016;-81
2023/05/30 09:08:41;;;;;;;4.32;3.38;;;21.00;51.10;;;;;;5079358;28;20028;-81
2023/05/30 09:11:07;;;;;;;7.88;3.13;;;20.90;50.20;;;;;;5078709;28;20069;-81
2023/05/30 09:13:36;;;;;;;6.55;3.38;;;21.00;50.50;;;;;;5096819;28;20028;-81
2023/05/30 09:16:01;;;;;;;6.07;4.20;;;21.10;50.20;;;;;;5096913;28;20071;-81
2023/05/30 09:18:34;;;;;;;5.70;3.28;;;20.90;49.10;;;;;;5096669;28;20027;-81
2023/05/30 09:21:04;;;;;;;5.15;3.10;;;20.70;49.80;;;;;;5096419;28;20473;-81
2023/05/30 09:23:29;;;;;;;6.32;3.50;;;20.80;48.70;;;;;;5096586;28;20028;-81
2023/05/30 09:25:59;;;;;;;6.40;3.70;;;21.30;48.30;;;;;;5097677;28;20016;-81
2023/05/30 09:28:26;;;;;;;4.78;3.50;;;21.30;47.50;;;;;;5078232;28;20028;-81
2023/05/30 09:30:54;;;;;;;6.00;2.88;;;21.10;48.30;;;;;;5078346;28;20054;-81
2023/05/30 09:33:19;;;;;;;4.32;3.45;;;20.80;49.60;;;;;;5078251;28;20389;-81
2023/05/30 09:35:48;;;;;;;7.68;3.35;;;20.90;50.30;;;;;;5096456;28;20020;-82
2023/05/30 09:38:20;;;;;;;4.63;3.10;;;20.70;49.70;;;;;;5096245;28;20103;-81
2023/05/30 09:40:48;;;;;;;;;;;20.90;49.30;;;;;;5078607;28;20031;-81
2023/05/30 09:43:13;;;;;;;22.65;20.30;;;21.30;50.00;;;;;;5096260;28;19904;-81
2023/05/30 09:45:39;;;;;;;7.57;3.65;;;21.10;49.50;;;;;;5096294;28;20386;-81
2023/05/30 09:48:05;;;;;;;9.07;4.38;;;21.00;49.20;;;;;;5096952;28;20035;-81
2023/05/30 09:50:30;;;;;;;5.00;3.08;;;21.20;49.60;;;;;;5077998;28;20016;-81
2023/05/30 09:52:56;;;;;;;6.43;3.60;;;21.20;50.40;;;;;;5077895;28;20021;-81
2023/05/30 09:55:24;;;;;;;3.38;2.95;;;21.00;48.20;;;;;;5077984;28;20032;-81
2023/05/30 09:57:52;;;;;;;9.60;3.58;;;20.90;47.90;;;;;;5077951;28;20027;-81
2023/05/30 10:00:23;;;;;;;6.00;3.58;;;21.00;47.10;;;;;;5077874;28;20024;-81
2023/05/30 10:02:54;;;;;;;6.25;3.63;;;21.00;47.20;;;;;;5095965;28;20024;-81
2023/05/30 10:05:26;;;;;;;3.40;3.00;;;21.10;47.20;;;;;;5078535;28;20058;-81
2023/05/30 10:07:54;;;;;;;7.70;3.20;;;21.30;47.20;;;;;;5095591;28;20077;-81
2023/05/30 10:10:20;;;;;;;6.55;3.55;;;21.20;46.60;;;;;;5095880;28;20048;-81
2023/05/30 10:12:50;;;;;;;7.10;3.83;;;21.50;46.40;;;;;;5077420;28;20058;-81
2023/05/30 10:15:16;;;;;;;5.95;3.17;;;21.80;45.00;;;;;;5077591;28;20012;-81
2023/05/30 10:18:05;;;;;;;5.93;3.33;;;22.00;45.80;;;;;;5077300;28;20170;-81
2023/05/30 10:20:31;;;;;;;6.22;3.47;;;22.10;46.00;;;;;;5077402;28;20024;-81
2023/05/30 10:22:58;;;;;;;7.90;3.38;;;22.40;45.30;;;;;;5095730;28;20146;-81
2023/05/30 10:25:26;;;;;;;4.38;3.55;;;21.90;45.00;;;;;;5095442;28;20107;-81
2023/05/30 10:27:53;;;;;;;6.32;3.40;;;22.10;45.70;;;;;;5095153;28;20044;-81
2023/05/30 10:30:32;;;;;;;6.45;3.15;;;21.70;46.10;;;;;;5077232;28;20046;-81
2023/05/30 10:33:08;;;;;;;6.88;2.83;;;21.00;46.20;;;;;;5095119;28;20119;-81
2023/05/30 10:35:34;;;;;;;4.45;3.20;;;20.60;47.50;;;;;;5095233;28;20024;-81
2023/05/30 10:38:01;;;;;;;8.07;3.33;;;20.60;47.80;;;;;;5077085;28;20020;-82
2023/05/30 10:40:51;;;;;;;4.80;3.35;;;20.70;48.20;;;;;;5072430;28;20102;-82
2023/05/30 10:43:38;;;;;;;6.55;2.78;;;20.80;48.80;;;;;;5092436;28;20027;-79
2023/05/30 10:46:22;;;;;;;4.20;3.47;;;21.10;48.50;;;;;;5093100;28;20055;-79
2023/05/30 10:49:01;;;;;;;8.85;3.85;;;21.00;48.40;;;;;;5074880;28;20043;-81
2023/05/30 10:51:27;;;;;;;5.25;2.97;;;21.20;48.40;;;;;;5073777;28;20016;-79
2023/05/30 10:53:53;;;;;;;7.05;3.45;;;21.40;47.70;;;;;;5092706;28;20081;-80
2023/05/30 10:56:42;;;;;;;5.25;3.00;;;21.80;47.10;;;;;;5071751;28;20056;-80
2023/05/30 10:59:17;;;;;;;5.97;3.35;;;21.80;46.60;;;;;;5060311;28;20017;-81
2023/05/30 11:02:00;;;;;;;5.32;3.10;;;21.30;47.40;;;;;;5082060;28;20059;-80
2023/05/30 11:04:38;;;;;;;6.03;3.15;;;21.50;48.70;;;;;;5064489;28;20022;-80
2023/05/30 11:07:05;;;;;;;7.78;3.67;;;21.30;47.70;;;;;;5063780;28;20040;-80
2023/05/30 11:09:32;;;;;;;4.65;3.53;;;21.30;48.40;;;;;;5081978;28;20044;-80
2023/05/30 11:12:00;;;;;;;8.25;3.30;;;21.30;47.60;;;;;;5062476;28;20486;-80
2023/05/30 11:14:30;;;;;;;6.57;3.10;;;21.30;47.30;;;;;;5061286;28;20066;-79
2023/05/30 11:17:03;;;;;;;5.45;3.78;;;21.20;46.50;;;;;;5065579;28;20028;-78
2023/05/30 11:19:43;;;;;;;4.85;3.42;;;21.30;45.70;;;;;;5074057;28;20111;-79
2023/05/30 11:22:22;;;;;;;4.28;2.95;;;21.60;45.60;;;;;;5092929;28;20095;-80
2023/05/30 11:25:27;;;;;;;6.35;3.60;;;21.60;46.20;;;;;;5092286;28;20511;-81
2023/05/30 11:28:06;;;;;;;7.68;3.65;;;21.70;47.20;;;;;;5089494;28;20093;-80
2023/05/30 11:30:37;;;;;;;6.60;3.55;;;21.80;47.00;;;;;;5091277;28;20028;-81
2023/05/30 11:33:04;;;;;;;8.40;3.10;;;21.90;46.40;;;;;;5087106;28;20515;-80
2023/05/30 11:35:31;;;;;;;6.07;3.83;;;22.10;46.50;;;;;;5087962;28;20028;-81
2023/05/30 11:38:00;;;;;;;6.40;3.30;;;22.10;46.10;;;;;;5067875;28;20024;-81
2023/05/30 11:40:28;;;;;;;4.28;3.42;;;21.90;46.00;;;;;;5072581;28;20028;-81
2023/05/30 11:42:55;;;;;;;4.95;3.05;;;22.20;45.80;;;;;;5070947;28;20488;-81
2023/05/30 11:45:29;;;;;;;3.83;2.97;;;22.30;44.80;;;;;;5091632;28;20062;-81
2023/05/30 11:48:10;;;;;;;6.20;3.40;;;22.30;45.10;;;;;;5081255;28;20043;-81
2023/05/30 11:50:41;;;;;;;7.07;3.17;;;22.20;44.60;;;;;;5083043;28;20089;-81
2023/05/30 11:53:14;;;;;;;8.18;3.45;;;21.80;45.30;;;;;;5081592;28;20024;-81
2023/05/30 11:55:46;;;;;;;5.28;3.22;;;21.80;46.80;;;;;;5063826;28;20028;-82
2023/05/30 11:58:17;;;;;;;5.47;2.78;;;21.80;47.00;;;;;;5071082;28;20024;-80
2023/05/30 12:00:43;;;;;;;5.03;3.60;;;21.70;47.00;;;;;;5089574;28;20048;-81
2023/05/30 12:03:18;;;;;;;8.52;3.53;;;21.50;47.00;;;;;;5088614;28;20059;-80
2023/05/30 12:05:45;;;;;;;3.67;3.13;;;21.70;47.40;;;;;;5078685;28;20393;-80
2023/05/30 12:08:16;;;;;;;7.25;3.22;;;21.30;47.00;;;;;;5062861;28;20042;-80
2023/05/30 12:10:42;;;;;;;4.32;3.20;;;21.60;47.10;;;;;;5061833;28;20040;-80
2023/05/30 12:13:08;;;;;;;4.22;3.28;;;21.80;46.70;;;;;;5062801;28;20488;-80
2023/05/30 12:15:36;;;;;;;6.85;3.15;;;21.60;45.20;;;;;;5067441;28;20038;-81
2023/05/30 12:18:02;;;;;;;4.13;3.15;;;21.50;45.90;;;;;;5062299;28;20024;-79
2023/05/30 12:20:28;;;;;;;3.30;2.70;;;21.80;45.90;;;;;;5080585;28;20031;-81
2023/05/30 12:22:53;;;;;;;4.10;3.17;;;21.80;46.10;;;;;;5064040;28;20028;-81
2023/05/30 12:25:25;;;;;;;3.90;2.90;;;22.20;45.90;;;;;;5083664;28;20508;-81
2023/05/30 12:27:50;;;;;;;5.03;3.53;;;21.90;45.60;;;;;;5062498;28;20036;-81
2023/05/30 12:30:18;;;;;;;3.58;2.72;;;21.70;45.90;;;;;;5081328;28;20424;-81
2023/05/30 12:32:47;;;;;;;8.20;3.55;;;21.40;46.00;;;;;;5075780;28;20024;-81
2023/05/30 12:35:13;;;;;;;4.53;3.28;;;21.30;46.20;;;;;;5070624;28;20016;-81
2023/05/30 12:37:39;;;;;;;8.10;2.70;;;20.90;47.20;;;;;;5060417;28;20051;-81
2023/05/30 12:40:07;;;;;;;4.00;2.65;;;20.90;47.90;;;;;;5075991;28;20021;-80
2023/05/30 12:42:36;;;;;;;9.43;3.47;;;20.90;47.70;;;;;;5076228;28;20118;-79
2023/05/30 12:45:04;;;;;;;4.75;2.65;;;21.00;47.60;;;;;;5082897;28;20135;-79
2023/05/30 12:47:29;;;;;;;4.45;3.10;;;21.40;47.50;;;;;;5076737;28;20067;-80